createdAt,value
2023-02-11T00:01:41.418Z,102465.41
2023-02-11T00:04:08.455Z,102469.63
2023-02-11T00:06:41.080Z,102469.50
2023-02-11T00:09:08.427Z,102475.63
2023-02-11T00:11:35.319Z,102468.31
2023-02-11T00:14:05.973Z,102477.16
2023-02-11T00:16:33.115Z,102459.38
2023-02-11T00:19:01.694Z,102463.53
2023-02-11T00:21:29.340Z,102458.69
2023-02-11T00:24:02.138Z,102464.19
2023-02-11T00:26:35.516Z,102456.09
2023-02-11T00:29:05.730Z,102465.13
2023-02-11T00:31:33.172Z,102474.81
2023-02-11T00:34:00.342Z,102483.13
2023-02-11T00:36:32.246Z,102482.28
2023-02-11T00:39:00.138Z,102492.28
2023-02-11T00:41:27.278Z,102473.00
2023-02-11T00:43:59.084Z,102472.38
2023-02-11T00:46:26.085Z,102482.09
2023-02-11T00:48:57.572Z,102472.03
2023-02-11T00:51:26.491Z,102461.66
2023-02-11T00:53:56.067Z,102467.84
2023-02-11T00:56:26.264Z,102456.34
2023-02-11T00:58:53.983Z,102453.00
2023-02-11T01:01:21.566Z,102456.00
2023-02-11T01:03:51.235Z,102448.47
2023-02-11T01:06:21.196Z,102438.25
2023-02-11T01:08:48.133Z,102451.44
2023-02-11T01:11:21.348Z,102437.69
2023-02-11T01:13:50.280Z,102417.50
2023-02-11T01:16:21.070Z,102421.97
2023-02-11T01:18:48.240Z,102419.66
2023-02-11T01:21:17.895Z,102414.28
2023-02-11T01:23:45.152Z,102406.84
2023-02-11T01:26:12.142Z,102410.13
2023-02-11T01:28:43.750Z,102406.19
2023-02-11T01:31:10.860Z,102408.78
2023-02-11T01:33:43.022Z,102404.63
2023-02-11T01:36:11.186Z,102397.56
2023-02-11T01:38:41.159Z,102388.94
2023-02-11T01:41:11.857Z,102373.53
2023-02-11T01:43:49.838Z,102373.56
2023-02-11T01:46:41.277Z,102375.06
2023-02-11T01:49:17.460Z,102366.84
2023-02-11T01:51:52.773Z,102372.03
2023-02-11T01:54:43.712Z,102381.09
2023-02-11T01:57:22.405Z,102385.63
2023-02-11T01:59:58.478Z,102382.50
2023-02-11T02:03:07.122Z,102379.25
2023-02-11T02:05:54.424Z,102389.56
2023-02-11T02:08:31.054Z,102388.16
2023-02-11T02:11:01.033Z,102371.53
2023-02-11T02:13:31.126Z,102370.81
2023-02-11T02:16:09.913Z,102375.59
2023-02-11T02:19:17.558Z,102361.16
2023-02-11T02:22:22.920Z,102367.63
2023-02-11T02:25:08.571Z,102374.09
2023-02-11T02:28:25.941Z,102372.78
2023-02-11T02:31:27.385Z,102370.19
2023-02-11T02:34:14.471Z,102372.16
2023-02-11T02:37:22.170Z,102369.00
2023-02-11T02:39:53.542Z,102370.31
2023-02-11T02:42:27.456Z,102368.16
2023-02-11T02:44:56.650Z,102368.47
2023-02-11T02:47:26.191Z,102367.03
2023-02-11T02:49:55.429Z,102361.84
2023-02-11T02:52:44.100Z,102354.94
2023-02-11T02:55:22.889Z,102342.06
2023-02-11T02:58:01.630Z,102335.72
2023-02-11T03:00:44.262Z,102339.28
2023-02-11T03:03:40.764Z,102336.81
2023-02-11T03:06:26.821Z,102327.59
2023-02-11T03:09:02.315Z,102324.63
2023-02-11T03:11:32.068Z,102328.50
2023-02-11T03:14:06.735Z,102342.75
2023-02-11T03:16:40.192Z,102342.75
2023-02-11T03:19:33.524Z,102338.41
2023-02-11T03:22:03.740Z,102349.09
2023-02-11T03:24:35.360Z,102331.53
2023-02-11T03:27:13.083Z,102339.50
2023-02-11T03:29:51.917Z,102329.56
2023-02-11T03:32:37.725Z,102331.28
2023-02-11T03:35:12.653Z,102339.06
2023-02-11T03:37:52.287Z,102336.91
2023-02-11T03:40:32.426Z,102333.03
2023-02-11T03:43:10.138Z,102322.03
2023-02-11T03:45:39.027Z,102317.06
2023-02-11T03:48:16.647Z,102309.47
2023-02-11T03:50:46.737Z,102320.59
2023-02-11T03:53:17.701Z,102311.44
2023-02-11T03:55:49.198Z,102305.91
2023-02-11T03:58:19.018Z,102306.84
2023-02-11T04:00:46.325Z,102299.34
2023-02-11T04:03:16.043Z,102312.69
2023-02-11T04:05:43.622Z,102310.13
2023-02-11T04:08:10.983Z,102309.47
2023-02-11T04:10:37.953Z,102303.44
2023-02-11T04:13:04.840Z,102300.09
2023-02-11T04:15:34.098Z,102293.41
2023-02-11T04:18:03.552Z,102289.84
2023-02-11T04:20:33.290Z,102291.69
2023-02-11T04:23:03.757Z,102308.63
2023-02-11T04:25:37.184Z,102314.44
2023-02-11T04:28:06.633Z,102312.38
2023-02-11T04:30:33.773Z,102314.22
2023-02-11T04:33:02.968Z,102316.56
2023-02-11T04:35:32.405Z,102323.50
2023-02-11T04:37:59.375Z,102321.75
2023-02-11T04:40:26.257Z,102330.16
2023-02-11T04:42:53.392Z,102328.41
2023-02-11T04:45:20.499Z,102323.16
2023-02-11T04:47:47.553Z,102318.56
2023-02-11T04:50:15.364Z,102320.69
2023-02-11T04:52:44.594Z,102313.16
2023-02-11T04:55:12.892Z,102308.97
2023-02-11T04:57:39.902Z,102303.91
2023-02-11T05:00:12.428Z,102307.91
2023-02-11T05:02:39.511Z,102307.38
2023-02-11T05:05:09.088Z,102313.06
2023-02-11T05:07:36.073Z,102301.13
2023-02-11T05:10:03.407Z,102306.53
2023-02-11T05:12:30.365Z,102300.72
2023-02-11T05:14:59.462Z,102297.69
2023-02-11T05:17:28.989Z,102294.41
2023-02-11T05:19:55.818Z,102295.44
2023-02-11T05:22:22.723Z,102297.06
2023-02-11T05:24:50.392Z,102306.78
2023-02-11T05:27:17.301Z,102291.84
2023-02-11T05:29:44.241Z,102287.06
2023-02-11T05:32:13.692Z,102292.28
2023-02-11T05:34:47.656Z,102298.97
2023-02-11T05:37:14.840Z,102289.66
2023-02-11T05:39:41.942Z,102300.41
2023-02-11T05:42:09.393Z,102289.66
2023-02-11T05:44:36.403Z,102289.94
2023-02-11T05:47:08.633Z,102282.69
2023-02-11T05:49:35.830Z,102290.34
2023-02-11T05:52:05.253Z,102284.13
2023-02-11T05:54:32.181Z,102285.28
2023-02-11T05:57:00.733Z,102289.19
2023-02-11T05:59:27.666Z,102276.88
2023-02-11T06:01:54.622Z,102283.78
2023-02-11T06:04:28.689Z,102278.63
2023-02-11T06:06:55.603Z,102287.97
2023-02-11T06:09:22.584Z,102285.41
2023-02-11T06:11:49.526Z,102286.25
2023-02-11T06:14:18.767Z,102271.13
2023-02-11T06:16:48.235Z,102258.25
2023-02-11T06:19:15.207Z,102264.47
2023-02-11T06:21:47.002Z,102271.13
2023-02-11T06:24:14.045Z,102262.78
2023-02-11T06:26:41.099Z,102262.00
2023-02-11T06:29:08.218Z,102270.75
2023-02-11T06:31:41.131Z,102263.97
2023-02-11T06:34:10.668Z,102271.78
2023-02-11T06:36:40.076Z,102261.38
2023-02-11T06:39:10.087Z,102257.78
2023-02-11T06:41:37.780Z,102267.75
2023-02-11T06:44:09.356Z,102258.78
2023-02-11T06:46:38.885Z,102264.94
2023-02-11T06:49:05.824Z,102275.03
2023-02-11T06:51:32.757Z,102275.38
2023-02-11T06:54:02.176Z,102277.78
2023-02-11T06:56:30.378Z,102273.63
2023-02-11T06:59:00.271Z,102277.16
2023-02-11T07:01:28.381Z,102271.44
2023-02-11T07:03:58.952Z,102264.00
2023-02-11T07:06:28.077Z,102256.59
2023-02-11T07:08:56.090Z,102268.94
2023-02-11T07:11:29.107Z,102282.16
2023-02-11T07:14:02.183Z,102281.78
2023-02-11T07:16:29.274Z,102285.75
2023-02-11T07:18:58.870Z,102291.56
2023-02-11T07:21:26.122Z,102285.66
2023-02-11T07:23:55.778Z,102302.09
2023-02-11T07:26:26.254Z,102307.56
2023-02-11T07:28:53.520Z,102299.38
2023-02-11T07:31:31.239Z,102303.28
2023-02-11T07:34:02.037Z,102315.06
2023-02-11T07:36:32.175Z,102307.78
2023-02-11T07:39:00.242Z,102313.09
2023-02-11T07:41:28.045Z,102314.19
2023-02-11T07:43:55.573Z,102322.44
2023-02-11T07:46:29.500Z,102319.91
2023-02-11T07:48:56.731Z,102309.81
2023-02-11T07:51:31.446Z,102303.84
2023-02-11T07:54:00.160Z,102299.16
2023-02-11T07:56:28.741Z,102311.31
2023-02-11T07:58:59.622Z,102328.09
2023-02-11T08:01:28.627Z,102325.56
2023-02-11T08:04:00.911Z,102327.16
2023-02-11T08:06:31.961Z,102321.19
2023-02-11T08:09:04.710Z,102337.88
2023-02-11T08:11:35.397Z,102336.75
2023-02-11T08:14:02.581Z,102344.22
2023-02-11T08:16:33.026Z,102348.16
2023-02-11T08:19:05.696Z,102340.31
2023-02-11T08:21:38.992Z,102355.31
2023-02-11T08:24:06.938Z,102335.81
2023-02-11T08:26:35.766Z,102350.81
2023-02-11T08:29:12.822Z,102347.41
2023-02-11T08:31:43.320Z,102345.34
2023-02-11T08:34:14.365Z,102358.56
2023-02-11T08:36:43.030Z,102355.09
2023-02-11T08:39:20.684Z,102358.78
2023-02-11T08:41:56.637Z,102364.06
2023-02-11T08:44:26.263Z,102373.31
2023-02-11T08:46:53.983Z,102378.81
2023-02-11T08:49:23.757Z,102392.63
2023-02-11T08:51:50.818Z,102406.41
2023-02-11T08:54:17.872Z,102411.50
2023-02-11T08:56:45.695Z,102403.22
2023-02-11T08:59:17.816Z,102406.69
2023-02-11T09:01:46.631Z,102391.66
2023-02-11T09:04:18.246Z,102387.31
2023-02-11T09:06:45.691Z,102397.88
2023-02-11T09:09:16.399Z,102402.97
2023-02-11T09:11:46.081Z,102394.91
2023-02-11T09:14:22.410Z,102397.16
2023-02-11T09:16:56.780Z,102403.44
2023-02-11T09:19:25.924Z,102406.75
2023-02-11T09:21:52.849Z,102410.81
2023-02-11T09:24:22.245Z,102416.00
2023-02-11T09:26:56.072Z,102407.41
2023-02-11T09:29:22.999Z,102407.94
2023-02-11T09:31:51.638Z,102404.88
2023-02-11T09:34:22.437Z,102406.94
2023-02-11T09:36:49.850Z,102404.16
2023-02-11T09:39:20.264Z,102398.03
2023-02-11T09:42:05.551Z,102405.13
2023-02-11T09:44:36.035Z,102405.66
2023-02-11T09:47:29.313Z,102414.75
2023-02-11T09:50:04.851Z,102426.31
2023-02-11T09:52:55.634Z,102430.00
2023-02-11T09:55:37.993Z,102430.09
2023-02-11T09:58:16.557Z,102443.13
2023-02-11T10:01:08.831Z,102430.97
2023-02-11T10:04:27.342Z,102437.75
2023-02-11T10:07:03.320Z,102427.50
2023-02-11T10:09:48.377Z,102420.50
2023-02-11T10:12:39.509Z,102414.09
2023-02-11T10:15:12.943Z,102424.16
2023-02-11T10:18:28.675Z,102435.88
2023-02-11T10:21:40.650Z,102441.91
2023-02-11T10:24:13.015Z,102465.31
2023-02-11T10:26:43.282Z,102454.22
2023-02-11T10:29:39.126Z,102453.97
2023-02-11T10:32:27.399Z,102449.41
2023-02-11T10:35:02.235Z,102438.50
2023-02-11T10:37:30.251Z,102437.31
2023-02-11T10:39:57.190Z,102431.19
2023-02-11T10:42:26.039Z,102432.53
2023-02-11T10:45:14.541Z,102437.84
2023-02-11T10:47:42.350Z,102436.25
2023-02-11T10:50:30.171Z,102433.06
2023-02-11T10:53:17.621Z,102424.06
2023-02-11T10:55:54.811Z,102432.78
2023-02-11T10:58:41.916Z,102453.75
2023-02-11T11:01:23.890Z,102454.13
2023-02-11T11:03:55.539Z,102455.72
2023-02-11T11:06:32.269Z,102459.25
2023-02-11T11:08:59.393Z,102461.88
2023-02-11T11:11:27.551Z,102460.50
2023-02-11T11:13:54.462Z,102451.88
2023-02-11T11:16:33.491Z,102452.66
2023-02-11T11:19:08.620Z,102451.75
2023-02-11T11:21:47.469Z,102450.44
2023-02-11T11:24:25.540Z,102450.31
2023-02-11T11:27:00.884Z,102452.50
2023-02-11T11:29:43.250Z,102461.13
2023-02-11T11:32:20.721Z,102460.59
2023-02-11T11:34:57.262Z,102471.16
2023-02-11T11:37:30.265Z,102474.91
2023-02-11T11:40:02.665Z,102475.28
2023-02-11T11:42:38.203Z,102480.72
2023-02-11T11:45:24.807Z,102484.19
2023-02-11T11:48:20.973Z,102472.72
2023-02-11T11:50:53.133Z,102477.25
2023-02-11T11:53:40.858Z,102473.84
2023-02-11T11:56:18.875Z,102484.06
2023-02-11T11:58:48.388Z,102479.13
2023-02-11T12:01:39.550Z,102484.56
2023-02-11T12:04:37.507Z,102480.13
2023-02-11T12:07:50.648Z,102460.66
2023-02-11T12:10:52.618Z,102468.41
2023-02-11T12:13:44.158Z,102470.75
2023-02-11T12:16:27.304Z,102467.00
2023-02-11T12:19:33.269Z,102474.69
2023-02-11T12:22:40.616Z,102469.50
2023-02-11T12:25:29.896Z,102461.00
2023-02-11T12:28:43.514Z,102462.38
2023-02-11T12:31:38.287Z,102467.28
2023-02-11T12:34:32.477Z,102461.84
2023-02-11T12:37:07.850Z,102457.94
2023-02-11T12:40:15.009Z,102453.88
2023-02-11T12:43:21.202Z,102470.38
2023-02-11T12:46:11.535Z,102474.47
2023-02-11T12:49:24.002Z,102465.84
2023-02-11T12:52:16.254Z,102479.38
2023-02-11T12:55:03.768Z,102471.75
2023-02-11T12:57:33.530Z,102474.94
2023-02-11T13:00:30.384Z,102479.50
2023-02-11T13:03:02.557Z,102485.91
2023-02-11T13:05:46.211Z,102489.72
2023-02-11T13:08:31.295Z,102497.00
2023-02-11T13:11:14.284Z,102489.97
2023-02-11T13:14:01.090Z,102477.16
2023-02-11T13:16:44.112Z,102459.66
2023-02-11T13:19:14.112Z,102460.03
2023-02-11T13:22:04.165Z,102463.50
2023-02-11T13:24:57.205Z,102464.47
2023-02-11T13:27:41.551Z,102467.06
2023-02-11T13:30:34.836Z,102475.69
2023-02-11T13:33:03.326Z,102479.88
2023-02-11T13:35:37.909Z,102481.97
2023-02-11T13:38:21.645Z,102466.69
2023-02-11T13:41:19.428Z,102465.09
2023-02-11T13:44:09.357Z,102467.06
2023-02-11T13:47:05.064Z,102466.56
2023-02-11T13:49:42.159Z,102474.19
2023-02-11T13:52:28.322Z,102478.03
2023-02-11T13:55:02.868Z,102485.63
2023-02-11T13:57:36.404Z,102484.06
2023-02-11T14:00:32.518Z,102483.06
2023-02-11T14:03:30.396Z,102484.94
2023-02-11T14:06:27.944Z,102480.75
2023-02-11T14:09:10.156Z,102487.25
2023-02-11T14:11:52.301Z,102500.59
2023-02-11T14:14:27.477Z,102491.81
2023-02-11T14:17:03.222Z,102505.50
2023-02-11T14:19:35.057Z,102507.22
2023-02-11T14:22:13.601Z,102514.63
2023-02-11T14:24:52.396Z,102517.44
2023-02-11T14:27:45.021Z,102502.56
2023-02-11T14:30:59.867Z,102534.09
2023-02-11T14:34:02.064Z,102533.34
2023-02-11T14:36:51.836Z,102526.81
2023-02-11T14:39:45.871Z,102537.28
2023-02-11T14:42:22.564Z,102538.28
2023-02-11T14:44:55.928Z,102536.81
2023-02-11T14:47:35.565Z,102545.69
2023-02-11T14:50:03.009Z,102544.81
2023-02-11T14:52:35.781Z,102549.88
2023-02-11T14:55:52.249Z,102558.25
2023-02-11T14:58:34.801Z,102554.56
2023-02-11T15:01:23.588Z,102573.19
2023-02-11T15:03:50.799Z,102578.50
2023-02-11T15:06:42.673Z,102581.97
2023-02-11T15:09:44.248Z,102588.34
2023-02-11T15:12:23.812Z,102576.25
2023-02-11T15:15:04.170Z,102589.31
2023-02-11T15:17:32.946Z,102587.84
2023-02-11T15:20:02.014Z,102591.41
2023-02-11T15:22:33.427Z,102595.72
2023-02-11T15:25:19.605Z,102595.47
2023-02-11T15:27:57.719Z,102604.38
2023-02-11T15:30:30.865Z,102607.44
2023-02-11T15:33:02.761Z,102608.03
2023-02-11T15:35:40.988Z,102620.72
2023-02-11T15:38:13.335Z,102620.38
2023-02-11T15:40:40.398Z,102622.97
2023-02-11T15:43:10.397Z,102625.13
2023-02-11T15:45:55.134Z,102625.34
2023-02-11T15:48:33.552Z,102618.91
2023-02-11T15:51:25.384Z,102619.16
2023-02-11T15:54:02.312Z,102618.16
2023-02-11T15:56:37.527Z,102621.25
2023-02-11T15:59:25.800Z,102623.63
2023-02-11T16:01:54.709Z,102624.59
2023-02-11T16:04:28.580Z,102626.53
2023-02-11T16:07:00.913Z,102627.66
2023-02-11T16:09:36.147Z,102629.75
2023-02-11T16:12:27.055Z,102636.91
2023-02-11T16:14:59.694Z,102641.97
2023-02-11T16:17:28.951Z,102647.03
2023-02-11T16:19:58.539Z,102639.38
2023-02-11T16:22:35.419Z,102642.94
2023-02-11T16:25:05.787Z,102629.22
2023-02-11T16:27:41.961Z,102639.34
2023-02-11T16:30:39.797Z,102637.16
2023-02-11T16:33:06.855Z,102641.34
2023-02-11T16:35:33.840Z,102654.06
2023-02-11T16:38:00.751Z,102660.13
2023-02-11T16:40:30.282Z,102680.56
2023-02-11T16:42:57.177Z,102682.50
2023-02-11T16:45:29.294Z,102681.28
2023-02-11T16:47:56.443Z,102680.66
2023-02-11T16:50:27.023Z,102682.31
2023-02-11T16:52:56.533Z,102679.19
2023-02-11T16:55:26.047Z,102678.34
2023-02-11T16:57:55.435Z,102687.81
2023-02-11T17:00:25.419Z,102697.66
2023-02-11T17:02:52.439Z,102708.41
2023-02-11T17:05:23.075Z,102708.72
2023-02-11T17:07:52.463Z,102710.19
2023-02-11T17:10:24.393Z,102710.34
2023-02-11T17:12:52.496Z,102723.91
2023-02-11T17:15:19.422Z,102738.56
2023-02-11T17:17:49.337Z,102733.88
2023-02-11T17:20:16.846Z,102736.09
2023-02-11T17:22:43.820Z,102747.69
2023-02-11T17:25:17.876Z,102746.97
2023-02-11T17:27:45.470Z,102754.59
2023-02-11T17:30:16.837Z,102743.69
2023-02-11T17:32:43.848Z,102741.94
2023-02-11T17:35:15.807Z,102737.81
2023-02-11T17:37:45.250Z,102744.41
2023-02-11T17:40:13.313Z,102749.03
2023-02-11T17:42:40.266Z,102753.38
2023-02-11T17:45:08.907Z,102760.44
2023-02-11T17:47:36.537Z,102760.00
2023-02-11T17:50:04.097Z,102762.97
2023-02-11T17:52:31.360Z,102765.94
2023-02-11T17:54:58.246Z,102761.38
2023-02-11T17:57:25.081Z,102758.66
2023-02-11T17:59:52.027Z,102755.88
2023-02-11T18:02:18.939Z,102765.63
2023-02-11T18:04:45.908Z,102766.88
2023-02-11T18:07:19.365Z,102782.84
2023-02-11T18:09:48.667Z,102780.53
2023-02-11T18:12:17.863Z,102786.97
2023-02-11T18:14:44.828Z,102789.81
2023-02-11T18:17:13.831Z,102787.22
2023-02-11T18:19:42.973Z,102789.56
2023-02-11T18:22:12.223Z,102795.88
2023-02-11T18:24:41.585Z,102800.66
2023-02-11T18:27:09.965Z,102806.97
2023-02-11T18:29:41.486Z,102804.94
2023-02-11T18:32:08.414Z,102805.09
2023-02-11T18:34:35.385Z,102811.81
2023-02-11T18:37:05.003Z,102818.09
2023-02-11T18:42:16.463Z,102825.13
2023-02-11T18:44:43.562Z,102817.78
2023-02-11T18:47:14.172Z,102819.28
2023-02-11T18:49:45.086Z,102812.59
2023-02-11T18:52:13.745Z,102819.88
2023-02-11T18:54:43.656Z,102826.91
2023-02-11T18:57:13.899Z,102831.16
2023-02-11T18:59:42.953Z,102836.09
2023-02-11T19:02:16.409Z,102835.34
2023-02-11T19:04:45.164Z,102835.06
2023-02-11T19:07:12.164Z,102835.31
2023-02-11T19:09:42.817Z,102844.69
2023-02-11T19:12:12.474Z,102845.47
2023-02-11T19:14:42.106Z,102839.78
2023-02-11T19:17:13.549Z,102836.78
2023-02-11T19:19:43.447Z,102836.44
2023-02-11T19:22:14.349Z,102834.72
2023-02-11T19:24:44.967Z,102845.59
2023-02-11T19:27:13.426Z,102845.50
2023-02-11T19:29:44.839Z,102846.50
2023-02-11T19:32:16.426Z,102857.47
2023-02-11T19:34:46.218Z,102855.13
2023-02-11T19:37:14.290Z,102855.59
2023-02-11T19:39:44.324Z,102865.66
2023-02-11T19:42:13.205Z,102861.00
2023-02-11T19:44:41.029Z,102864.00
2023-02-11T19:47:12.785Z,102864.75
2023-02-11T19:49:41.218Z,102873.78
2023-02-11T19:52:08.104Z,102875.88
2023-02-11T19:54:35.866Z,102872.03
2023-02-11T19:57:05.472Z,102869.28
2023-02-11T19:59:36.212Z,102870.81
2023-02-11T20:02:03.778Z,102871.41
2023-02-11T20:04:32.269Z,102870.41
2023-02-11T20:07:01.082Z,102877.56
2023-02-11T20:09:29.065Z,102877.50
2023-02-11T20:12:01.524Z,102883.69
2023-02-11T20:14:29.155Z,102881.72
2023-02-11T20:16:56.318Z,102889.41
2023-02-11T20:19:25.580Z,102898.00
2023-02-11T20:21:55.567Z,102888.53
2023-02-11T20:24:24.272Z,102887.56
2023-02-11T20:26:55.539Z,102887.38
2023-02-11T20:29:26.368Z,102901.19
2023-02-11T20:31:54.416Z,102903.09
2023-02-11T20:34:25.038Z,102904.56
2023-02-11T20:36:54.942Z,102901.09
2023-02-11T20:39:26.807Z,102903.66
2023-02-11T20:41:54.989Z,102902.97
2023-02-11T20:44:25.154Z,102908.09
2023-02-11T20:46:54.696Z,102906.75
2023-02-11T20:49:28.259Z,102908.16
2023-02-11T20:51:56.857Z,102913.06
2023-02-11T20:54:25.918Z,102909.34
2023-02-11T20:56:55.574Z,102911.25
2023-02-11T20:59:23.597Z,102908.38
2023-02-11T21:01:55.571Z,102917.28
2023-02-11T21:04:32.900Z,102923.34
2023-02-11T21:07:02.150Z,102914.56
2023-02-11T21:09:33.750Z,102926.84
2023-02-11T21:12:05.182Z,102919.25
2023-02-11T21:14:34.208Z,102932.25
2023-02-11T21:17:04.218Z,102939.31
2023-02-11T21:19:32.193Z,102937.25
2023-02-11T21:22:00.775Z,102937.69
2023-02-11T21:24:29.075Z,102935.66
2023-02-11T21:27:03.564Z,102948.94
2023-02-11T21:29:34.026Z,102952.13
2023-02-11T21:32:04.739Z,102963.94
2023-02-11T21:34:33.960Z,102961.88
2023-02-11T21:37:01.211Z,102963.13
2023-02-11T21:39:30.465Z,102967.31
2023-02-11T21:41:57.324Z,102967.13
2023-02-11T21:44:24.263Z,102971.41
2023-02-11T21:46:53.421Z,102968.22
2023-02-11T21:49:21.380Z,102978.78
2023-02-11T21:51:48.328Z,102977.06
2023-02-11T21:54:15.292Z,102981.63
2023-02-11T21:56:42.236Z,102981.00
2023-02-11T21:59:14.025Z,102983.00
2023-02-11T22:01:44.858Z,102994.72
2023-02-11T22:04:12.097Z,102989.94
2023-02-11T22:06:41.493Z,103001.25
2023-02-11T22:09:10.743Z,103008.69
2023-02-11T22:11:39.699Z,103006.63
2023-02-11T22:14:06.927Z,103007.50
2023-02-11T22:16:33.945Z,103017.59
2023-02-11T22:19:02.397Z,103020.03
2023-02-11T22:21:29.838Z,103016.72
2023-02-11T22:23:58.970Z,103009.34
2023-02-11T22:26:27.692Z,103013.66
2023-02-11T22:28:59.364Z,103015.22
2023-02-11T22:31:31.891Z,103026.84
2023-02-11T22:34:01.839Z,103025.84
2023-02-11T22:36:40.449Z,103026.09
2023-02-11T22:39:12.718Z,103029.56
2023-02-11T22:41:44.397Z,103032.16
2023-02-11T22:44:11.739Z,103027.06
2023-02-11T22:46:42.289Z,103031.16
2023-02-11T22:49:11.881Z,103029.44
2023-02-11T22:51:39.404Z,103036.59
2023-02-11T22:54:09.805Z,103042.34
2023-02-11T22:56:42.044Z,103042.78
2023-02-11T22:59:14.475Z,103052.41
2023-02-11T23:01:42.648Z,103049.19
2023-02-11T23:04:14.819Z,103045.72
2023-02-11T23:06:41.874Z,103060.38
2023-02-11T23:09:12.265Z,103059.31
2023-02-11T23:11:42.402Z,103061.78
2023-02-11T23:14:13.732Z,103067.88
2023-02-11T23:16:42.961Z,103067.69
2023-02-11T23:19:11.017Z,103062.66
2023-02-11T23:21:41.257Z,103068.53
2023-02-11T23:24:13.412Z,103064.50
2023-02-11T23:26:43.131Z,103074.50
2023-02-11T23:29:11.092Z,103066.34
2023-02-11T23:31:46.119Z,103066.34
2023-02-11T23:34:17.296Z,103070.28
2023-02-11T23:36:44.617Z,103074.63
2023-02-11T23:39:15.525Z,103074.84
2023-02-11T23:41:42.451Z,103069.44
2023-02-11T23:44:10.469Z,103074.63
2023-02-11T23:46:37.698Z,103087.53
2023-02-11T23:49:07.342Z,103087.00
2023-02-11T23:51:36.350Z,103090.81
2023-02-11T23:54:03.364Z,103084.59
2023-02-11T23:56:30.618Z,103085.13
2023-02-11T23:59:00.042Z,103084.25
